Time;durP1;ratioP1;P1;durP2;ratioP2;P2;SDS_P1;SDS_P2;PMS_P1;PMS_P2;Temp;Humidity;BMP_temperature;BMP_pressure;BME280_temperature;BME280_humidity;BME280_pressure;Samples;Min_cycle;Max_cycle;Signal;HPM_P1;HPM_P2
2023/12/11 00:01:44;;;;;;;25.85;4.88;;;9.20;99.90;;;;;;4941363;29;20057;-93
2023/12/11 00:04:19;;;;;;;27.95;5.20;;;9.20;99.90;;;;;;4965353;29;20137;-93
2023/12/11 00:06:45;;;;;;;21.77;3.88;;;9.10;99.90;;;;;;4943141;29;20043;-94
2023/12/11 00:09:33;;;;;;;24.75;4.32;;;9.10;99.90;;;;;;4941417;29;20410;-92
2023/12/11 00:12:20;;;;;;;25.15;4.93;;;9.00;99.90;;;;;;4950799;29;20051;-92
2023/12/11 00:14:49;;;;;;;27.80;4.40;;;9.00;99.90;;;;;;4942832;29;20035;-93
2023/12/11 00:17:15;;;;;;;23.70;4.47;;;9.00;99.90;;;;;;4942885;29;20047;-91
2023/12/11 00:19:47;;;;;;;24.30;3.88;;;9.00;99.90;;;;;;4971921;28;20069;-93
2023/12/11 00:22:32;;;;;;;27.13;4.32;;;8.90;99.90;;;;;;4963482;28;20054;-91
2023/12/11 00:29:00;;;;;;;25.55;4.60;;;8.70;99.90;;;;;;4963836;29;20049;-92
2023/12/11 00:31:57;;;;;;;26.13;4.68;;;8.70;99.90;;;;;;4940277;29;20047;-92
2023/12/11 00:34:56;;;;;;;28.20;4.27;;;9.00;99.90;;;;;;4864456;29;20093;-93
2023/12/11 00:37:39;;;;;;;26.77;4.60;;;9.40;99.90;;;;;;4849297;29;20150;-93
2023/12/11 00:40:06;;;;;;;26.55;4.78;;;8.50;99.90;;;;;;4844486;29;20053;-92
2023/12/11 00:42:32;;;;;;;27.42;4.05;;;8.50;99.90;;;;;;4856469;29;20048;-92
2023/12/11 00:45:23;;;;;;;34.03;4.80;;;8.60;99.90;;;;;;4919204;29;20114;-92
2023/12/11 00:48:02;;;;;;;;;;;;;;;;;;;;;
2023/12/11 00:50:47;;;;;;;31.42;4.93;;;8.50;99.90;;;;;;4919592;29;20491;-92
2023/12/11 00:53:58;;;;;;;26.67;4.68;;;8.50;99.90;;;;;;4841500;29;20064;-91
2023/12/11 00:56:29;;;;;;;24.88;4.18;;;8.60;99.90;;;;;;4919789;29;20047;-92
2023/12/11 00:58:58;;;;;;;23.93;3.73;;;8.50;99.90;;;;;;4913334;29;20060;-93
2023/12/11 01:01:38;;;;;;;28.17;4.50;;;8.50;99.90;;;;;;4938774;23;20047;-92
2023/12/11 01:04:07;;;;;;;28.20;4.53;;;8.40;99.90;;;;;;4938623;29;20411;-93
2023/12/11 01:06:36;;;;;;;30.20;5.47;;;8.40;99.90;;;;;;4938447;29;20040;-92
2023/12/11 01:09:16;;;;;;;26.63;4.53;;;8.50;99.90;;;;;;4938131;29;20139;-91
2023/12/11 01:11:44;;;;;;;31.07;4.20;;;8.40;99.90;;;;;;4938104;29;20051;-91
2023/12/11 01:14:19;;;;;;;25.20;4.40;;;8.50;99.90;;;;;;4938049;29;20493;-92
2023/12/11 01:16:51;;;;;;;27.60;4.97;;;8.60;99.90;;;;;;4939184;29;20047;-92
2023/12/11 01:19:17;;;;;;;27.40;4.33;;;8.40;99.90;;;;;;4938132;29;20106;-92
2023/12/11 01:21:44;;;;;;;27.73;4.53;;;8.40;99.90;;;;;;4938770;28;20059;-93
2023/12/11 01:24:11;;;;;;;25.50;4.80;;;8.60;99.90;;;;;;4938293;29;20058;-93
2023/12/11 01:26:55;;;;;;;27.27;3.70;;;8.40;99.90;;;;;;4954876;29;20042;-93
2023/12/11 01:29:36;;;;;;;24.37;4.33;;;8.50;99.90;;;;;;4938557;29;20047;-93
2023/12/11 01:32:03;;;;;;;19.77;3.47;;;8.30;99.90;;;;;;4938770;29;20492;-92
2023/12/11 01:34:29;;;;;;;28.10;4.53;;;8.30;99.90;;;;;;4937934;29;20050;-92
2023/12/11 01:37:06;;;;;;;33.13;4.37;;;8.50;99.90;;;;;;4943206;29;20047;-93
2023/12/11 01:39:32;;;;;;;27.77;4.27;;;8.40;99.90;;;;;;4940895;29;20558;-92
2023/12/11 01:41:59;;;;;;;24.97;4.47;;;8.40;99.90;;;;;;4938345;29;20133;-93
2023/12/11 01:44:25;;;;;;;22.93;3.90;;;8.50;99.90;;;;;;4942663;29;20058;-92
2023/12/11 01:47:13;;;;;;;24.43;5.47;;;8.60;99.90;;;;;;4940128;29;20051;-93
2023/12/11 01:49:40;;;;;;;28.40;4.97;;;8.60;99.90;;;;;;4938402;29;20043;-93
2023/12/11 01:52:19;;;;;;;27.40;4.77;;;8.50;99.90;;;;;;4937087;29;20125;-92
2023/12/11 01:55:04;;;;;;;30.37;4.73;;;8.70;99.90;;;;;;4925650;29;20069;-91
2023/12/11 01:57:56;;;;;;;29.70;4.47;;;8.00;99.90;;;;;;4938991;29;20062;-93
2023/12/11 02:00:47;;;;;;;29.27;4.90;;;8.70;99.90;;;;;;4938673;29;20134;-92
2023/12/11 02:03:24;;;;;;;34.33;4.93;;;8.70;99.90;;;;;;4936996;29;20500;-93
2023/12/11 02:06:19;;;;;;;29.25;5.35;;;8.80;99.90;;;;;;4948970;29;20110;-92
2023/12/11 02:08:46;;;;;;;29.00;4.85;;;8.90;99.90;;;;;;4919192;29;20062;-92
2023/12/11 02:11:12;;;;;;;27.20;5.07;;;8.70;99.90;;;;;;4928920;29;20139;-92
2023/12/11 02:13:45;;;;;;;31.45;5.25;;;8.70;99.90;;;;;;4967964;23;20115;-91
2023/12/11 02:16:49;;;;;;;27.95;4.43;;;8.90;99.90;;;;;;4922632;29;20152;-92
2023/12/11 02:22:43;;;;;;;34.03;5.57;;;8.90;99.90;;;;;;4939467;23;20102;-91
2023/12/11 02:25:12;;;;;;;28.75;4.78;;;8.80;99.90;;;;;;4919615;29;20059;-92
2023/12/11 02:27:39;;;;;;;40.13;5.82;;;8.90;99.90;;;;;;4919650;29;20472;-93
2023/12/11 02:30:07;;;;;;;30.03;5.20;;;8.70;99.90;;;;;;4918879;29;20052;-94
2023/12/11 02:33:01;;;;;;;28.83;6.25;;;8.80;99.90;;;;;;4919360;29;20492;-93
2023/12/11 02:35:46;;;;;;;32.80;5.75;;;8.60;99.90;;;;;;4948770;23;20106;-93
2023/12/11 02:38:12;;;;;;;29.02;5.03;;;8.80;99.90;;;;;;4956860;29;20059;-93
2023/12/11 02:40:47;;;;;;;42.10;6.00;;;8.70;99.90;;;;;;4956919;29;20081;-92
2023/12/11 02:43:13;;;;;;;32.97;5.13;;;8.00;99.90;;;;;;4956985;29;20055;-91
2023/12/11 02:45:39;;;;;;;40.78;6.15;;;8.70;99.90;;;;;;4957527;29;20099;-92
2023/12/11 02:48:14;;;;;;;31.27;5.15;;;8.70;99.90;;;;;;4957509;29;20082;-92
2023/12/11 02:50:43;;;;;;;25.02;4.93;;;8.90;99.90;;;;;;4957686;29;20058;-92
2023/12/11 02:53:35;;;;;;;38.95;5.47;;;8.80;99.90;;;;;;4957389;29;20432;-92
2023/12/11 02:56:01;;;;;;;29.80;4.57;;;8.60;99.90;;;;;;4956866;29;20047;-93
2023/12/11 02:58:39;;;;;;;33.50;5.88;;;8.80;99.90;;;;;;4956485;29;20050;-91
2023/12/11 03:01:05;;;;;;;30.98;5.32;;;9.00;99.90;;;;;;4953889;29;20054;-92
2023/12/11 03:03:36;;;;;;;27.53;4.80;;;8.90;99.90;;;;;;4937678;29;20048;-93
2023/12/11 03:06:04;;;;;;;37.35;6.05;;;9.10;99.90;;;;;;4936895;29;20044;-92
2023/12/11 03:08:30;;;;;;;32.38;5.43;;;9.00;99.90;;;;;;4937967;29;20087;-92
2023/12/11 03:11:46;;;;;;;37.85;6.70;;;9.00;99.90;;;;;;4956805;23;20047;-93
2023/12/11 03:14:16;;;;;;;35.15;5.63;;;9.10;99.90;;;;;;4946985;29;20062;-92
2023/12/11 03:16:42;;;;;;;32.08;5.15;;;9.10;99.90;;;;;;4951979;29;20065;-92
2023/12/11 03:19:14;;;;;;;33.03;5.30;;;9.00;99.90;;;;;;4956454;29;20047;-92
2023/12/11 03:22:13;;;;;;;33.22;6.35;;;9.20;99.90;;;;;;4958311;29;20042;-93
2023/12/11 03:24:39;;;;;;;32.47;6.32;;;8.40;99.90;;;;;;4963858;28;20107;-91
2023/12/11 03:37:34;;;;;;;27.13;4.85;;;9.20;99.90;;;;;;1882407;23;20022;-92
2023/12/11 03:40:32;;;;;;;35.72;5.82;;;9.10;99.90;;;;;;4920384;29;20059;-92
2023/12/11 03:45:24;;;;;;;31.25;5.03;;;9.10;99.90;;;;;;5434167;23;20059;-92
2023/12/11 03:55:05;;;;;;;36.15;6.03;;;8.90;99.90;;;;;;5316692;23;20113;-92
2023/12/11 03:57:39;;;;;;;33.50;6.47;;;8.70;99.90;;;;;;4978321;23;20059;-93
2023/12/11 04:00:06;;;;;;;31.88;5.70;;;9.00;99.90;;;;;;4928305;29;20111;-93
2023/12/11 04:02:38;;;;;;;36.38;5.80;;;8.90;99.90;;;;;;4921276;29;20111;-92
2023/12/11 04:05:14;;;;;;;34.75;5.35;;;8.80;99.90;;;;;;4922993;29;20103;-91
2023/12/11 04:08:16;;;;;;;34.97;5.68;;;8.80;99.90;;;;;;4925380;29;20048;-91
2023/12/11 04:11:28;;;;;;;28.15;5.28;;;8.80;99.90;;;;;;4921375;29;20083;-92
2023/12/11 04:14:55;;;;;;;;;;;;;;;;;;;;;
2023/12/11 04:24:12;;;;;;;26.15;4.15;;;9.00;99.90;;;;;;4934867;29;20066;-93
2023/12/11 04:26:43;;;;;;;25.42;4.63;;;8.90;99.90;;;;;;4999345;23;20460;-93
2023/12/11 04:29:14;;;;;;;25.65;4.47;;;8.90;99.90;;;;;;4955367;29;20051;-93
2023/12/11 04:31:55;;;;;;;25.42;3.90;;;8.60;99.90;;;;;;4972313;28;20110;-94
2023/12/11 04:34:21;;;;;;;25.25;3.92;;;8.90;99.90;;;;;;4907694;29;20051;-93
2023/12/11 04:36:48;;;;;;;27.92;4.28;;;8.90;99.90;;;;;;4954759;29;20518;-92
2023/12/11 04:45:04;;;;;;;25.98;4.90;;;9.10;99.90;;;;;;5605717;23;20047;-93
2023/12/11 04:47:35;;;;;;;22.30;4.15;;;9.20;99.90;;;;;;4939426;29;20082;-93
2023/12/11 04:50:01;;;;;;;29.95;4.38;;;9.00;99.90;;;;;;4942942;28;20047;-92
2023/12/11 04:52:27;;;;;;;29.10;4.28;;;9.00;99.90;;;;;;4944238;29;20189;-94
2023/12/11 04:55:13;;;;;;;;;;;;;;;;;;;;;
2023/12/11 04:57:58;;;;;;;24.95;4.25;;;8.70;99.90;;;;;;4933962;29;20066;-94
2023/12/11 05:00:35;;;;;;;22.45;4.47;;;9.00;99.90;;;;;;4939143;29;20059;-92
2023/12/11 05:03:04;;;;;;;21.70;3.70;;;8.90;99.90;;;;;;4935748;29;20126;-93
2023/12/11 05:05:55;;;;;;;23.00;3.92;;;9.10;99.90;;;;;;4934805;29;20040;-93
2023/12/11 05:08:48;;;;;;;19.70;3.90;;;8.90;99.90;;;;;;4843191;29;20400;-91
2023/12/11 05:11:38;;;;;;;23.60;3.97;;;8.60;99.90;;;;;;4854647;29;20117;-93
2023/12/11 05:14:30;;;;;;;25.98;4.50;;;8.90;99.90;;;;;;4916144;29;20087;-92
2023/12/11 05:17:05;;;;;;;29.35;4.00;;;9.00;99.90;;;;;;4919006;29;20060;-92
2023/12/11 05:19:35;;;;;;;20.83;3.75;;;8.90;99.90;;;;;;4943375;23;20047;-92
2023/12/11 05:22:16;;;;;;;20.98;3.78;;;8.80;99.90;;;;;;4939097;29;20043;-93
2023/12/11 05:24:55;;;;;;;24.85;5.05;;;9.00;99.90;;;;;;4955368;29;20098;-92
2023/12/11 05:30:42;;;;;;;;;;;;;;;;;;;;;
2023/12/11 05:33:42;;;;;;;;;;;8.90;99.90;;;;;;4910094;29;20192;-93
2023/12/11 05:36:18;;;;;;;31.58;4.60;;;8.50;99.90;;;;;;4899768;29;20384;-93
2023/12/11 05:39:15;;;;;;;32.88;4.90;;;8.90;99.90;;;;;;4900482;29;20058;-93
2023/12/11 05:41:59;;;;;;;27.45;5.22;;;9.00;99.90;;;;;;4866874;29;20528;-93
2023/12/11 05:44:38;;;;;;;30.00;6.05;;;8.20;99.90;;;;;;4901336;29;20048;-91
2023/12/11 05:47:23;;;;;;;31.05;5.05;;;9.00;99.90;;;;;;4899602;29;20052;-93
2023/12/11 05:53:46;;;;;;;28.63;5.03;;;8.00;99.90;;;;;;4841832;29;20148;-92
2023/12/11 05:56:25;;;;;;;;;;;;;;;;;;;;;
2023/12/11 05:59:19;;;;;;;31.70;4.85;;;9.00;99.90;;;;;;4835069;29;20471;-92
2023/12/11 06:02:25;;;;;;;30.83;5.10;;;8.90;99.90;;;;;;4861289;29;20068;-93
2023/12/11 06:11:32;;;;;;;24.33;4.32;;;8.60;99.90;;;;;;4971784;23;20075;-92
2023/12/11 06:14:02;;;;;;;20.33;3.75;;;9.00;99.90;;;;;;4941187;29;20043;-91
2023/12/11 06:17:44;;;;;;;;;;;;;;;;;;;;;
2023/12/11 06:20:29;;;;;;;25.65;3.95;;;9.00;99.90;;;;;;4844992;29;20058;-94
2023/12/11 06:23:13;;;;;;;25.63;4.20;;;8.70;99.90;;;;;;4920722;23;20051;-96
2023/12/11 06:25:41;;;;;;;17.80;3.40;;;8.80;99.90;;;;;;4962327;23;20051;-93
2023/12/11 06:28:07;;;;;;;24.38;3.50;;;8.70;99.90;;;;;;4954986;29;20059;-92
2023/12/11 06:30:37;;;;;;;21.60;3.38;;;8.70;99.90;;;;;;4968866;28;20095;-95
2023/12/11 06:33:06;;;;;;;21.50;3.97;;;8.70;99.90;;;;;;4977451;28;20072;-93
2023/12/11 06:38:57;;;;;;;27.75;5.05;;;8.70;99.90;;;;;;5053700;23;20070;-94
2023/12/11 06:41:23;;;;;;;29.13;5.45;;;8.70;99.90;;;;;;4922149;29;20133;-90
2023/12/11 06:43:57;;;;;;;32.40;5.57;;;8.70;99.90;;;;;;4918708;29;20044;-92
2023/12/11 06:50:22;;;;;;;;;;;;;;;;;;;;;
2023/12/11 06:53:37;;;;;;;30.48;4.93;;;8.80;99.90;;;;;;4915721;29;20059;-89
2023/12/11 06:56:52;;;;;;;29.55;6.10;;;9.50;99.90;;;;;;4917883;29;20048;-89
2023/12/11 06:59:18;;;;;;;31.48;5.25;;;8.40;99.90;;;;;;4921382;29;20453;-89
2023/12/11 07:01:46;;;;;;;26.13;4.90;;;8.80;99.90;;;;;;4921612;29;20051;-91
2023/12/11 07:04:32;;;;;;;24.35;4.30;;;8.90;99.90;;;;;;4920870;29;20559;-92
2023/12/11 07:07:19;;;;;;;24.77;4.15;;;8.90;99.90;;;;;;4922132;29;20051;-89
2023/12/11 07:09:46;;;;;;;20.95;3.85;;;8.70;99.90;;;;;;4922106;29;20488;-91
2023/12/11 07:15:56;;;;;;;24.60;4.03;;;9.00;99.90;;;;;;4938226;29;20094;-88
2023/12/11 07:19:05;;;;;;;25.95;4.43;;;8.90;99.90;;;;;;4927177;29;20048;-91
2023/12/11 07:21:41;;;;;;;27.90;5.05;;;9.70;99.90;;;;;;4851125;29;20093;-90
2023/12/11 07:24:19;;;;;;;24.88;4.53;;;9.00;99.90;;;;;;4845672;29;20451;-92
2023/12/11 07:26:52;;;;;;;26.98;3.83;;;8.90;99.90;;;;;;4859355;29;20181;-90
2023/12/11 07:29:20;;;;;;;21.42;4.35;;;8.90;99.90;;;;;;4848637;29;20046;-91
2023/12/11 07:31:49;;;;;;;22.25;4.80;;;8.10;99.90;;;;;;4879548;29;20063;-91
2023/12/11 07:34:30;;;;;;;23.50;4.70;;;8.80;99.90;;;;;;4936821;29;20047;-92
2023/12/11 07:36:56;;;;;;;23.75;5.28;;;8.90;99.90;;;;;;4924707;29;20397;-90
2023/12/11 07:39:22;;;;;;;35.75;12.40;;;8.80;99.90;;;;;;4961252;23;20082;-90
2023/12/11 07:41:48;;;;;;;33.17;12.60;;;8.80;99.90;;;;;;4955926;29;20148;-91
2023/12/11 07:44:25;;;;;;;31.00;9.43;;;8.90;99.90;;;;;;4961824;23;20147;-90
2023/12/11 07:47:42;;;;;;;46.75;13.00;;;8.90;99.90;;;;;;4937938;29;20086;-89
2023/12/11 07:50:09;;;;;;;25.92;5.07;;;8.90;99.90;;;;;;4941897;29;20047;-92
2023/12/11 07:56:25;;;;;;;24.85;5.55;;;7.90;99.90;;;;;;4942249;29;20038;-91
2023/12/11 07:59:13;;;;;;;31.05;7.07;;;8.60;99.90;;;;;;4934212;29;20102;-91
2023/12/11 08:01:41;;;;;;;26.77;4.97;;;8.80;99.90;;;;;;5024347;23;20475;-91
2023/12/11 08:04:15;;;;;;;26.83;7.78;;;8.60;99.90;;;;;;4978892;23;20043;-92
2023/12/11 08:06:52;;;;;;;23.83;6.65;;;8.70;99.90;;;;;;4937917;29;20098;-91
2023/12/11 08:09:18;;;;;;;22.17;3.85;;;8.70;99.90;;;;;;4936877;29;20451;-91
2023/12/11 08:11:44;;;;;;;20.65;4.13;;;8.60;99.90;;;;;;4934237;29;20045;-94
2023/12/11 08:14:12;;;;;;;23.45;3.60;;;8.70;99.90;;;;;;4938542;29;20775;-93
2023/12/11 08:16:47;;;;;;;23.70;3.88;;;8.70;99.90;;;;;;4939771;29;20133;-95
2023/12/11 08:19:53;;;;;;;22.60;5.40;;;8.70;99.90;;;;;;4925687;29;20044;-94
2023/12/11 08:27:45;;;;;;;18.83;4.43;;;8.70;99.90;;;;;;4956864;29;20047;-89
2023/12/11 08:30:30;;;;;;;20.98;9.32;;;9.10;99.90;;;;;;4961922;29;20448;-89
2023/12/11 08:33:33;;;;;;;24.00;3.45;;;8.60;99.90;;;;;;4957727;29;20043;-89
2023/12/11 08:49:32;;;;;;;16.60;5.40;;;8.80;99.90;;;;;;4899119;29;20048;-90
2023/12/11 08:52:16;;;;;;;16.37;8.00;;;8.50;99.90;;;;;;4900361;29;20083;-92
2023/12/11 08:55:10;;;;;;;23.60;9.50;;;8.70;99.90;;;;;;5000828;23;20043;-91
2023/12/11 08:58:10;;;;;;;12.52;3.08;;;8.60;99.90;;;;;;4942617;29;20055;-91
2023/12/11 09:01:00;;;;;;;13.40;3.30;;;8.60;99.90;;;;;;4938221;29;20073;-92
2023/12/11 09:03:32;;;;;;;39.28;22.70;;;8.70;99.90;;;;;;4942920;29;20083;-91
2023/12/11 09:06:48;;;;;;;11.93;3.47;;;8.70;99.90;;;;;;4944118;29;20531;-87
2023/12/11 09:19:27;;;;;;;12.55;4.13;;;8.80;99.90;;;;;;1379079;26;20562;-91
2023/12/11 09:22:22;;;;;;;10.63;3.77;;;8.70;99.90;;;;;;4897347;29;20047;-92
2023/12/11 09:25:09;;;;;;;9.13;3.17;;;8.40;99.90;;;;;;4905750;29;20051;-91
2023/12/11 09:45:26;;;;;;;16.73;3.38;;;8.80;99.90;;;;;;4886772;29;20060;-91
2023/12/11 09:54:40;;;;;;;13.50;3.53;;;8.90;99.90;;;;;;5026028;23;20047;-94
2023/12/11 09:57:40;;;;;;;22.08;5.68;;;8.80;99.90;;;;;;4938579;29;20141;-93
2023/12/11 10:01:06;;;;;;;24.17;4.60;;;8.90;99.90;;;;;;5472216;23;20044;-91
2023/12/11 10:04:23;;;;;;;15.18;3.90;;;9.20;99.90;;;;;;4935649;29;20051;-90
2023/12/11 10:17:38;;;;;;;17.55;3.53;;;8.40;99.90;;;;;;4953320;29;20054;-91
2023/12/11 10:23:37;;;;;;;11.52;3.08;;;9.10;99.90;;;;;;5001701;23;20099;-92
2023/12/11 10:26:10;;;;;;;11.27;2.28;;;7.80;99.90;;;;;;4942622;23;20171;-93
2023/12/11 10:28:36;;;;;;;16.75;3.42;;;8.90;99.90;;;;;;4919244;29;20052;-93
2023/12/11 10:31:45;;;;;;;14.52;2.80;;;8.90;99.90;;;;;;4910876;23;20062;-92
2023/12/11 10:38:30;;;;;;;12.88;2.40;;;9.00;99.90;;;;;;4894721;29;20047;-90
2023/12/11 10:41:02;;;;;;;14.80;3.28;;;9.30;99.90;;;;;;4941055;29;20050;-94
2023/12/11 11:16:25;;;;;;;16.90;2.47;;;9.10;99.90;;;;;;4941006;29;20094;-94
2023/12/11 11:26:35;;;;;;;7.72;2.17;;;8.80;99.90;;;;;;4788154;30;20145;-88
2023/12/11 11:29:31;;;;;;;8.60;1.83;;;9.80;99.90;;;;;;4794448;29;20424;-88
2023/12/11 11:32:12;;;;;;;10.40;2.13;;;8.90;99.90;;;;;;4767317;29;20264;-88
2023/12/11 11:34:40;;;;;;;13.37;2.60;;;9.80;99.90;;;;;;4805040;29;20637;-87
2023/12/11 11:37:52;;;;;;;9.57;1.90;;;8.80;99.90;;;;;;4804993;29;20054;-88
2023/12/11 11:40:36;;;;;;;15.30;2.67;;;8.90;99.90;;;;;;4790289;29;20062;-87
2023/12/11 11:43:09;;;;;;;14.50;2.55;;;8.90;99.90;;;;;;4789282;29;20066;-87
2023/12/11 11:45:44;;;;;;;15.25;2.30;;;9.80;99.90;;;;;;4804836;29;20500;-87
2023/12/11 11:48:10;;;;;;;9.43;2.20;;;9.90;99.90;;;;;;4852237;29;20152;-87
2023/12/11 11:50:35;;;;;;;14.32;2.60;;;8.90;99.90;;;;;;4862925;29;20056;-87
2023/12/11 11:53:08;;;;;;;16.13;2.53;;;9.80;99.90;;;;;;4882083;29;20055;-87
2023/12/11 11:55:40;;;;;;;15.10;2.65;;;8.90;99.90;;;;;;4939387;29;20141;-87
2023/12/11 11:58:13;;;;;;;13.23;2.22;;;9.50;99.90;;;;;;4939281;29;20047;-87
2023/12/11 12:00:39;;;;;;;11.63;2.22;;;8.90;99.90;;;;;;4946993;23;20051;-87
2023/12/11 12:03:23;;;;;;;18.20;3.20;;;8.80;99.90;;;;;;4938635;29;20045;-88
2023/12/11 12:05:55;;;;;;;;;;;8.80;99.90;;;;;;4939408;29;20086;-85
2023/12/11 12:08:42;;;;;;;18.60;6.63;;;8.90;99.90;;;;;;4939060;29;19922;-84
2023/12/11 12:11:08;;;;;;;14.80;3.13;;;8.40;99.90;;;;;;4938497;29;20130;-84
2023/12/11 12:14:28;;;;;;;14.88;3.33;;;8.70;99.90;;;;;;4937805;29;20130;-85
2023/12/11 12:16:55;;;;;;;16.77;3.63;;;8.30;99.90;;;;;;4862548;29;20053;-85
2023/12/11 12:19:34;;;;;;;16.33;3.00;;;10.00;99.90;;;;;;4910083;29;20055;-85
2023/12/11 12:22:13;;;;;;;15.25;3.13;;;8.70;99.90;;;;;;4937894;29;20047;-87
2023/12/11 12:24:51;;;;;;;15.50;3.58;;;10.10;99.90;;;;;;4956171;29;20047;-87
2023/12/11 12:27:22;;;;;;;18.20;3.33;;;10.30;99.90;;;;;;4938164;29;20051;-87
2023/12/11 12:29:48;;;;;;;24.60;4.57;;;10.40;99.90;;;;;;4938925;29;20047;-87
2023/12/11 12:32:32;;;;;;;21.55;3.38;;;9.70;99.90;;;;;;4938271;29;20047;-87
2023/12/11 12:34:58;;;;;;;15.35;3.00;;;8.80;99.90;;;;;;4937768;29;20102;-87
2023/12/11 12:37:37;;;;;;;12.07;3.13;;;8.70;99.90;;;;;;4938923;29;20043;-87
2023/12/11 12:40:39;;;;;;;20.42;3.15;;;9.10;99.90;;;;;;4938743;29;20106;-86
2023/12/11 12:43:16;;;;;;;13.45;2.28;;;8.50;99.90;;;;;;4929390;29;20059;-87
2023/12/11 12:46:00;;;;;;;10.13;2.35;;;9.00;99.90;;;;;;4938696;29;20051;-87
2023/12/11 12:48:31;;;;;;;9.75;2.17;;;8.80;99.90;;;;;;4938917;29;20819;-86
2023/12/11 12:51:35;;;;;;;11.75;2.28;;;9.80;99.90;;;;;;4950101;28;20447;-86
2023/12/11 12:54:07;;;;;;;9.98;2.08;;;9.10;99.90;;;;;;5171959;23;20097;-87
2023/12/11 12:57:14;;;;;;;11.05;2.67;;;9.20;99.90;;;;;;4946190;29;20049;-88
2023/12/11 12:59:40;;;;;;;12.98;2.00;;;9.20;99.90;;;;;;4924987;29;20478;-88
2023/12/11 13:06:25;;;;;;;9.23;1.92;;;8.60;99.90;;;;;;4955540;29;20058;-87
2023/12/11 13:08:56;;;;;;;7.82;1.65;;;8.60;99.90;;;;;;4938245;29;20086;-88
2023/12/11 13:11:42;;;;;;;12.57;2.00;;;8.50;99.90;;;;;;4937403;29;20047;-85
2023/12/11 13:14:37;;;;;;;13.83;2.30;;;9.00;99.90;;;;;;4938187;29;20110;-87
2023/12/11 13:19:45;;;;;;;8.33;1.63;;;8.50;99.90;;;;;;5168016;23;20051;-87
2023/12/11 13:22:11;;;;;;;10.05;2.10;;;8.20;99.90;;;;;;4923330;29;20500;-87
2023/12/11 13:27:54;;;;;;;7.20;1.50;;;8.40;99.90;;;;;;4880023;29;20131;-87
2023/12/11 13:30:20;;;;;;;30.75;12.63;;;7.90;99.90;;;;;;5009479;23;20067;-86
2023/12/11 13:33:49;;;;;;;16.95;4.18;;;7.90;99.90;;;;;;4918417;29;20495;-88
2023/12/11 13:36:41;;;;;;;17.77;8.02;;;7.90;99.90;;;;;;4918448;29;20393;-87
2023/12/11 13:39:10;;;;;;;10.57;2.10;;;8.40;99.90;;;;;;4917482;29;20452;-87
2023/12/11 13:41:50;;;;;;;6.73;1.70;;;10.00;99.90;;;;;;4918826;29;20505;-85
2023/12/11 13:44:22;;;;;;;12.90;5.60;;;8.40;99.90;;;;;;4918446;29;20079;-86
2023/12/11 13:46:50;;;;;;;13.00;3.75;;;8.10;99.90;;;;;;4918932;29;20048;-85
2023/12/11 13:49:16;;;;;;;8.63;2.87;;;8.50;99.90;;;;;;4917813;29;20055;-85
2023/12/11 13:52:04;;;;;;;11.93;4.32;;;8.00;99.90;;;;;;4917524;29;20059;-86
2023/12/11 13:54:39;;;;;;;11.00;2.72;;;8.70;99.90;;;;;;4918717;29;20134;-85
2023/12/11 13:57:20;;;;;;;12.98;4.53;;;7.90;99.90;;;;;;4918298;29;20103;-86
2023/12/11 13:59:48;;;;;;;11.37;3.80;;;9.50;99.90;;;;;;4917775;29;20381;-85
2023/12/11 14:05:18;;;;;;;7.20;2.13;;;8.10;99.90;;;;;;4934750;29;20650;-84
2023/12/11 14:07:52;;;;;;;8.17;2.10;;;8.70;99.90;;;;;;4920396;29;20061;-85
2023/12/11 14:10:26;;;;;;;9.77;2.20;;;9.40;99.90;;;;;;4922599;29;20047;-85
2023/12/11 14:12:54;;;;;;;7.03;1.95;;;7.00;99.90;;;;;;4921827;29;20058;-85
2023/12/11 14:18:30;;;;;;;7.73;2.20;;;7.90;99.90;;;;;;4924275;23;20055;-85
2023/12/11 14:20:56;;;;;;;8.47;3.00;;;8.50;99.90;;;;;;4917561;29;20052;-85
2023/12/11 14:23:22;;;;;;;9.57;2.97;;;7.60;99.90;;;;;;4918529;29;20113;-85
2023/12/11 14:25:48;;;;;;;8.60;2.33;;;9.00;99.90;;;;;;4918791;29;20055;-85
2023/12/11 14:28:14;;;;;;;10.77;4.50;;;7.70;99.90;;;;;;4917598;29;20055;-85
2023/12/11 14:30:39;;;;;;;17.97;9.60;;;8.40;99.90;;;;;;4918591;29;20052;-85
2023/12/11 14:33:17;;;;;;;12.97;5.97;;;8.00;99.90;;;;;;4918109;29;20063;-85
2023/12/11 14:36:01;;;;;;;11.20;2.87;;;8.80;99.90;;;;;;4917836;29;20506;-86
2023/12/11 14:38:50;;;;;;;9.13;2.53;;;7.60;99.90;;;;;;4918984;29;20409;-85
2023/12/11 14:41:34;;;;;;;10.03;2.70;;;8.00;99.90;;;;;;4947207;23;20094;-85
2023/12/11 14:44:06;;;;;;;;;;;7.10;99.90;;;;;;4957038;29;20078;-85
2023/12/11 14:46:48;;;;;;;7.90;2.10;;;8.00;99.90;;;;;;4956751;29;20331;-84
2023/12/11 14:49:13;;;;;;;9.37;2.20;;;9.10;99.90;;;;;;4954839;29;20050;-85
2023/12/11 14:51:48;;;;;;;10.00;2.40;;;6.80;99.90;;;;;;4933230;23;20063;-85
2023/12/11 14:54:20;;;;;;;7.90;1.47;;;8.50;99.90;;;;;;4921315;29;20403;-87
2023/12/11 14:56:51;;;;;;;12.00;2.70;;;8.00;99.90;;;;;;4920506;29;20043;-85
2023/12/11 15:00:36;;;;;;;;;;;;;;;;;;;;;
2023/12/11 15:03:55;;;;;;;14.57;2.20;;;7.90;99.90;;;;;;4831705;29;20062;-89
2023/12/11 15:06:54;;;;;;;10.00;2.10;;;7.80;99.90;;;;;;4826406;29;20118;-91
2023/12/11 15:09:34;;;;;;;11.87;2.13;;;8.40;99.90;;;;;;4811040;29;20034;-92
2023/12/11 15:12:02;;;;;;;11.20;2.70;;;9.50;99.90;;;;;;4867830;29;20061;-94
2023/12/11 15:14:36;;;;;;;8.43;2.23;;;7.80;99.90;;;;;;4870154;29;20041;-94
2023/12/11 15:17:49;;;;;;;;;;;;;;;;;;;;;
2023/12/11 16:01:04;;;;;;;8.67;1.87;;;7.50;99.90;;;;;;5099635;23;20071;-85
2023/12/11 16:03:41;;;;;;;12.03;3.33;;;7.50;99.90;;;;;;4925040;29;20048;-87
2023/12/11 16:10:06;;;;;;;10.50;2.60;;;8.10;99.90;;;;;;4917436;29;20052;-88
2023/12/11 17:10:21;;;;;;;13.57;4.33;;;7.00;99.90;;;;;;4964470;23;20573;-90
2023/12/11 17:13:27;;;;;;;8.63;2.40;;;7.20;99.90;;;;;;4908511;23;21536;-91
2023/12/11 17:16:05;;;;;;;8.50;2.50;;;7.30;99.90;;;;;;4915770;29;20154;-91
2023/12/11 17:23:09;;;;;;;8.47;2.77;;;7.70;99.90;;;;;;4934341;29;20067;-91
2023/12/11 17:29:31;;;;;;;9.47;2.20;;;7.40;99.90;;;;;;5009366;23;20102;-91
2023/12/11 17:33:03;;;;;;;9.93;2.83;;;7.00;99.90;;;;;;4894138;29;20087;-91
2023/12/11 17:46:39;;;;;;;18.97;8.07;;;6.90;99.90;;;;;;5124157;23;20059;-91
2023/12/11 17:52:43;;;;;;;10.50;3.10;;;6.80;99.90;;;;;;5570654;23;20055;-90
2023/12/11 18:24:44;;;;;;;13.98;4.60;;;5.90;99.90;;;;;;4912377;29;20047;-92
2023/12/11 18:49:00;;;;;;;;;;;;;;;;;;;;;
2023/12/11 19:04:44;;;;;;;12.47;2.50;;;6.90;99.90;;;;;;5109035;23;20079;-92
2023/12/11 19:30:04;;;;;;;11.33;2.40;;;6.80;99.90;;;;;;5137629;23;20135;-87
2023/12/11 19:32:30;;;;;;;11.83;2.60;;;7.90;99.90;;;;;;4833597;29;20501;-88
2023/12/11 19:35:06;;;;;;;16.20;5.03;;;6.80;99.90;;;;;;4827353;29;20138;-87
2023/12/11 19:37:32;;;;;;;14.17;3.40;;;6.70;99.90;;;;;;4827086;29;20060;-87
2023/12/11 19:40:10;;;;;;;11.70;3.03;;;7.40;99.90;;;;;;4838884;29;20058;-88
2023/12/11 19:42:41;;;;;;;14.57;3.40;;;6.60;99.90;;;;;;4827850;29;20138;-88
2023/12/11 19:45:10;;;;;;;14.20;7.33;;;6.30;99.90;;;;;;4830584;29;20061;-87
2023/12/11 19:48:00;;;;;;;11.73;2.90;;;6.60;99.90;;;;;;4827978;29;20418;-88
2023/12/11 19:50:43;;;;;;;12.50;2.70;;;6.60;99.90;;;;;;4833884;29;20066;-87
2023/12/11 19:53:24;;;;;;;9.10;2.22;;;8.10;99.90;;;;;;4827429;29;20422;-87
2023/12/11 19:55:50;;;;;;;9.93;2.73;;;6.70;99.90;;;;;;4828094;29;20049;-88
2023/12/11 19:58:25;;;;;;;13.70;3.40;;;6.10;99.90;;;;;;4828262;29;20052;-88
2023/12/11 20:00:53;;;;;;;12.80;5.23;;;6.10;99.90;;;;;;4830053;29;20049;-94
2023/12/11 20:04:12;;;;;;;;;;;;;;;;;;;;;
2023/12/11 20:07:32;;;;;;;;;;;;;;;;;;;;;
2023/12/11 20:11:18;;;;;;;10.13;2.67;;;6.60;99.90;;;;;;4832789;29;20048;-91
2023/12/11 20:22:43;;;;;;;;;;;;;;;;;;;;;
2023/12/11 20:44:31;;;;;;;15.02;3.55;;;6.80;99.90;;;;;;4805737;29;20081;-92
2023/12/11 20:50:56;;;;;;;15.30;5.43;;;7.00;99.90;;;;;;4909408;24;20057;-91
2023/12/11 20:53:45;;;;;;;;;;;;;;;;;;;;;
2023/12/11 20:56:51;;;;;;;13.05;4.20;;;5.70;99.90;;;;;;4816631;29;20061;-91
2023/12/11 20:59:32;;;;;;;14.70;4.33;;;4.80;99.90;;;;;;4843850;29;20057;-90
2023/12/11 21:02:05;;;;;;;15.60;4.17;;;5.70;99.90;;;;;;4843917;29;20053;-92
2023/12/11 21:04:42;;;;;;;11.83;5.73;;;5.50;99.90;;;;;;4849257;24;20101;-91
2023/12/11 21:07:34;;;;;;;13.40;4.57;;;6.40;99.90;;;;;;4842788;29;20045;-90
2023/12/11 21:10:19;;;;;;;11.40;4.70;;;5.30;99.90;;;;;;4842911;29;20404;-90
2023/12/11 21:14:04;;;;;;;15.13;5.53;;;5.30;99.90;;;;;;4842440;29;20483;-91
2023/12/11 21:20:01;;;;;;;13.23;4.27;;;5.30;99.90;;;;;;4845761;29;20296;-91
2023/12/11 21:29:57;;;;;;;13.23;4.53;;;4.50;99.90;;;;;;4678291;30;20120;-92
2023/12/11 21:33:00;;;;;;;12.77;4.00;;;4.80;99.90;;;;;;4642758;30;20568;-89
2023/12/11 21:36:28;;;;;;;13.90;4.50;;;5.10;99.90;;;;;;4612727;31;20422;-91
2023/12/11 21:40:18;;;;;;;;;;;;;;;;;;;;;
2023/12/11 21:43:35;;;;;;;12.67;4.43;;;4.50;99.90;;;;;;4606285;31;20053;-92
2023/12/11 21:47:03;;;;;;;;;;;;;;;;;;;;;
2023/12/11 21:50:04;;;;;;;12.30;4.20;;;4.10;99.90;;;;;;4960386;24;20065;-93